Terminal Aerodrome Forecast
Issued by NWS

Home | Current Version | Previous Version | Text Only | Print | Product List | Glossary On
Versions: 1 2 3 4 5 6 7 8 9 10 11 12 13 14
405
FTUS45 KFGZ 261727
TAFSEZ
TAF
KSEZ 261727Z 2618/2718 18007KT P6SM SCT160 BKN200
     FM270400 05010G17KT P6SM BKN150
     FM271500 18007KT P6SM SCT160 BKN200=

USA.gov is the U.S. government's official web portal to all federal, state and local government web resources and services.